sensor_id;sensor_type;location;lat;lon;timestamp;P1;durP1;ratioP1;P2;durP2;ratioP2
71639;SDS011;60912;48.968;10.124;2023-04-08T00:00:01;8.10;;;4.20;;
71639;SDS011;60912;48.968;10.124;2023-04-08T00:02:28;7.68;;;3.83;;
71639;SDS011;60912;48.968;10.124;2023-04-08T00:04:53;7.10;;;3.97;;
71639;SDS011;60912;48.968;10.124;2023-04-08T00:07:19;7.15;;;4.00;;
71639;SDS011;60912;48.968;10.124;2023-04-08T00:09:45;10.33;;;3.77;;
71639;SDS011;60912;48.968;10.124;2023-04-08T00:12:10;6.95;;;3.53;;
71639;SDS011;60912;48.968;10.124;2023-04-08T00:14:36;6.43;;;3.53;;
71639;SDS011;60912;48.968;10.124;2023-04-08T00:17:02;6.80;;;3.97;;
71639;SDS011;60912;48.968;10.124;2023-04-08T00:19:27;9.00;;;4.00;;
71639;SDS011;60912;48.968;10.124;2023-04-08T00:21:53;8.23;;;4.10;;
71639;SDS011;60912;48.968;10.124;2023-04-08T00:24:18;8.43;;;4.00;;
71639;SDS011;60912;48.968;10.124;2023-04-08T00:26:44;7.77;;;4.13;;
71639;SDS011;60912;48.968;10.124;2023-04-08T00:29:09;6.17;;;3.80;;
71639;SDS011;60912;48.968;10.124;2023-04-08T00:31:34;7.10;;;3.73;;
71639;SDS011;60912;48.968;10.124;2023-04-08T00:34:00;7.65;;;3.90;;
71639;SDS011;60912;48.968;10.124;2023-04-08T00:36:26;6.60;;;3.93;;
71639;SDS011;60912;48.968;10.124;2023-04-08T00:38:51;7.22;;;4.07;;
71639;SDS011;60912;48.968;10.124;2023-04-08T00:41:17;7.03;;;3.93;;
71639;SDS011;60912;48.968;10.124;2023-04-08T00:43:42;7.67;;;4.00;;
71639;SDS011;60912;48.968;10.124;2023-04-08T00:46:08;5.80;;;3.80;;
71639;SDS011;60912;48.968;10.124;2023-04-08T00:48:33;5.50;;;3.50;;
71639;SDS011;60912;48.968;10.124;2023-04-08T00:50:59;6.30;;;3.55;;
71639;SDS011;60912;48.968;10.124;2023-04-08T00:53:24;6.50;;;3.60;;
71639;SDS011;60912;48.968;10.124;2023-04-08T00:55:50;5.53;;;3.50;;
71639;SDS011;60912;48.968;10.124;2023-04-08T00:58:15;7.50;;;3.87;;
71639;SDS011;60912;48.968;10.124;2023-04-08T01:00:45;8.25;;;3.60;;
71639;SDS011;60912;48.968;10.124;2023-04-08T01:09:22;6.70;;;3.50;;
71639;SDS011;60912;48.968;10.124;2023-04-08T01:11:52;6.90;;;3.80;;
71639;SDS011;60912;48.968;10.124;2023-04-08T01:14:22;6.95;;;3.83;;
71639;SDS011;60912;48.968;10.124;2023-04-08T01:16:51;6.95;;;3.75;;
71639;SDS011;60912;48.968;10.124;2023-04-08T01:19:26;7.80;;;4.00;;
71639;SDS011;60912;48.968;10.124;2023-04-08T01:21:57;5.80;;;3.53;;
71639;SDS011;60912;48.968;10.124;2023-04-08T01:24:35;6.47;;;4.00;;
71639;SDS011;60912;48.968;10.124;2023-04-08T01:27:03;9.27;;;3.92;;
71639;SDS011;60912;48.968;10.124;2023-04-08T01:29:30;7.45;;;4.10;;
71639;SDS011;60912;48.968;10.124;2023-04-08T01:31:58;7.15;;;4.43;;
71639;SDS011;60912;48.968;10.124;2023-04-08T01:34:26;7.25;;;4.32;;
71639;SDS011;60912;48.968;10.124;2023-04-08T01:36:52;6.57;;;4.23;;
71639;SDS011;60912;48.968;10.124;2023-04-08T01:39:19;7.40;;;4.63;;
71639;SDS011;60912;48.968;10.124;2023-04-08T01:41:45;7.15;;;4.53;;
71639;SDS011;60912;48.968;10.124;2023-04-08T01:44:12;9.43;;;4.70;;
71639;SDS011;60912;48.968;10.124;2023-04-08T01:46:38;7.63;;;4.27;;
71639;SDS011;60912;48.968;10.124;2023-04-08T01:49:05;10.27;;;4.65;;
71639;SDS011;60912;48.968;10.124;2023-04-08T01:51:31;10.30;;;4.90;;
71639;SDS011;60912;48.968;10.124;2023-04-08T01:53:57;8.93;;;4.78;;
71639;SDS011;60912;48.968;10.124;2023-04-08T01:56:26;10.13;;;5.13;;
71639;SDS011;60912;48.968;10.124;2023-04-08T01:58:53;9.02;;;4.60;;
71639;SDS011;60912;48.968;10.124;2023-04-08T02:01:24;8.63;;;4.80;;
71639;SDS011;60912;48.968;10.124;2023-04-08T02:03:51;9.13;;;4.32;;
71639;SDS011;60912;48.968;10.124;2023-04-08T02:06:20;8.40;;;4.43;;
71639;SDS011;60912;48.968;10.124;2023-04-08T02:08:45;9.83;;;5.10;;
71639;SDS011;60912;48.968;10.124;2023-04-08T02:11:11;7.93;;;4.97;;
71639;SDS011;60912;48.968;10.124;2023-04-08T02:13:36;10.47;;;5.00;;
71639;SDS011;60912;48.968;10.124;2023-04-08T02:16:03;9.13;;;4.95;;
71639;SDS011;60912;48.968;10.124;2023-04-08T02:18:34;7.73;;;4.33;;
71639;SDS011;60912;48.968;10.124;2023-04-08T02:23:28;8.37;;;5.07;;
71639;SDS011;60912;48.968;10.124;2023-04-08T02:25:57;8.15;;;5.43;;
71639;SDS011;60912;48.968;10.124;2023-04-08T02:28:23;9.25;;;5.50;;
71639;SDS011;60912;48.968;10.124;2023-04-08T02:30:51;9.60;;;6.20;;
71639;SDS011;60912;48.968;10.124;2023-04-08T02:33:21;9.88;;;6.38;;
71639;SDS011;60912;48.968;10.124;2023-04-08T02:35:47;10.90;;;6.10;;
71639;SDS011;60912;48.968;10.124;2023-04-08T02:38:15;11.27;;;6.60;;
71639;SDS011;60912;48.968;10.124;2023-04-08T02:40:40;10.57;;;6.60;;
71639;SDS011;60912;48.968;10.124;2023-04-08T02:43:06;9.70;;;6.00;;
71639;SDS011;60912;48.968;10.124;2023-04-08T02:45:39;10.37;;;6.37;;
71639;SDS011;60912;48.968;10.124;2023-04-08T02:48:05;12.68;;;6.57;;
71639;SDS011;60912;48.968;10.124;2023-04-08T02:50:31;9.30;;;6.20;;
71639;SDS011;60912;48.968;10.124;2023-04-08T02:52:56;11.47;;;6.43;;
71639;SDS011;60912;48.968;10.124;2023-04-08T02:55:22;13.10;;;7.60;;
71639;SDS011;60912;48.968;10.124;2023-04-08T02:57:47;14.73;;;9.00;;
71639;SDS011;60912;48.968;10.124;2023-04-08T03:00:13;16.03;;;9.73;;
71639;SDS011;60912;48.968;10.124;2023-04-08T03:02:39;16.65;;;10.10;;
71639;SDS011;60912;48.968;10.124;2023-04-08T03:05:05;18.15;;;9.65;;
71639;SDS011;60912;48.968;10.124;2023-04-08T03:07:31;15.57;;;10.00;;
71639;SDS011;60912;48.968;10.124;2023-04-08T03:09:57;15.30;;;10.05;;
71639;SDS011;60912;48.968;10.124;2023-04-08T03:12:22;17.43;;;10.00;;
71639;SDS011;60912;48.968;10.124;2023-04-08T03:14:48;19.10;;;10.88;;
71639;SDS011;60912;48.968;10.124;2023-04-08T03:17:14;17.57;;;10.10;;
71639;SDS011;60912;48.968;10.124;2023-04-08T03:19:39;16.23;;;10.10;;
71639;SDS011;60912;48.968;10.124;2023-04-08T03:22:05;18.23;;;11.47;;
71639;SDS011;60912;48.968;10.124;2023-04-08T03:24:30;19.53;;;11.47;;
71639;SDS011;60912;48.968;10.124;2023-04-08T03:26:55;20.20;;;12.40;;
71639;SDS011;60912;48.968;10.124;2023-04-08T03:29:21;18.03;;;11.33;;
71639;SDS011;60912;48.968;10.124;2023-04-08T03:31:46;19.80;;;12.27;;
71639;SDS011;60912;48.968;10.124;2023-04-08T03:34:12;19.50;;;12.23;;
71639;SDS011;60912;48.968;10.124;2023-04-08T03:36:37;20.13;;;12.50;;
71639;SDS011;60912;48.968;10.124;2023-04-08T03:39:02;20.37;;;12.27;;
71639;SDS011;60912;48.968;10.124;2023-04-08T03:41:28;20.60;;;12.20;;
71639;SDS011;60912;48.968;10.124;2023-04-08T03:43:53;21.47;;;12.63;;
71639;SDS011;60912;48.968;10.124;2023-04-08T03:46:19;20.67;;;12.43;;
71639;SDS011;60912;48.968;10.124;2023-04-08T03:48:44;20.47;;;12.17;;
71639;SDS011;60912;48.968;10.124;2023-04-08T03:51:10;19.77;;;12.33;;
71639;SDS011;60912;48.968;10.124;2023-04-08T03:53:35;22.60;;;13.20;;
71639;SDS011;60912;48.968;10.124;2023-04-08T03:56:00;19.13;;;12.77;;
71639;SDS011;60912;48.968;10.124;2023-04-08T03:58:27;21.95;;;13.38;;
71639;SDS011;60912;48.968;10.124;2023-04-08T04:00:53;24.77;;;13.90;;
71639;SDS011;60912;48.968;10.124;2023-04-08T04:03:18;22.30;;;12.90;;
71639;SDS011;60912;48.968;10.124;2023-04-08T04:05:43;19.37;;;12.43;;
71639;SDS011;60912;48.968;10.124;2023-04-08T04:08:09;20.70;;;12.83;;
71639;SDS011;60912;48.968;10.124;2023-04-08T04:10:34;21.17;;;12.90;;
71639;SDS011;60912;48.968;10.124;2023-04-08T04:13:00;22.52;;;12.98;;
71639;SDS011;60912;48.968;10.124;2023-04-08T04:15:25;20.73;;;13.00;;
71639;SDS011;60912;48.968;10.124;2023-04-08T04:17:51;20.67;;;13.30;;
71639;SDS011;60912;48.968;10.124;2023-04-08T04:20:19;19.10;;;12.73;;
71639;SDS011;60912;48.968;10.124;2023-04-08T04:22:45;20.30;;;12.52;;
71639;SDS011;60912;48.968;10.124;2023-04-08T04:25:11;20.10;;;13.00;;
71639;SDS011;60912;48.968;10.124;2023-04-08T04:27:37;25.98;;;13.38;;
71639;SDS011;60912;48.968;10.124;2023-04-08T04:30:02;21.77;;;13.00;;
71639;SDS011;60912;48.968;10.124;2023-04-08T04:32:28;20.67;;;13.05;;
71639;SDS011;60912;48.968;10.124;2023-04-08T04:34:54;22.57;;;14.17;;
71639;SDS011;60912;48.968;10.124;2023-04-08T04:37:19;21.55;;;12.98;;
71639;SDS011;60912;48.968;10.124;2023-04-08T04:39:45;23.03;;;13.63;;
71639;SDS011;60912;48.968;10.124;2023-04-08T04:42:11;21.58;;;13.73;;
71639;SDS011;60912;48.968;10.124;2023-04-08T04:44:36;25.13;;;13.50;;
71639;SDS011;60912;48.968;10.124;2023-04-08T04:47:02;22.67;;;13.10;;
71639;SDS011;60912;48.968;10.124;2023-04-08T04:49:27;22.20;;;13.27;;
71639;SDS011;60912;48.968;10.124;2023-04-08T04:51:53;21.80;;;12.77;;
71639;SDS011;60912;48.968;10.124;2023-04-08T04:54:18;20.23;;;12.60;;
71639;SDS011;60912;48.968;10.124;2023-04-08T04:56:44;19.95;;;12.82;;
71639;SDS011;60912;48.968;10.124;2023-04-08T04:59:10;20.47;;;12.73;;
71639;SDS011;60912;48.968;10.124;2023-04-08T05:01:35;20.90;;;12.97;;
71639;SDS011;60912;48.968;10.124;2023-04-08T05:04:01;20.30;;;12.63;;
71639;SDS011;60912;48.968;10.124;2023-04-08T05:06:26;26.73;;;14.23;;
71639;SDS011;60912;48.968;10.124;2023-04-08T05:08:52;22.27;;;13.83;;
71639;SDS011;60912;48.968;10.124;2023-04-08T05:11:17;20.35;;;13.35;;
71639;SDS011;60912;48.968;10.124;2023-04-08T05:13:43;21.77;;;14.10;;
71639;SDS011;60912;48.968;10.124;2023-04-08T05:16:09;20.38;;;13.10;;
71639;SDS011;60912;48.968;10.124;2023-04-08T05:18:34;21.57;;;13.60;;
71639;SDS011;60912;48.968;10.124;2023-04-08T05:21:00;22.58;;;13.77;;
71639;SDS011;60912;48.968;10.124;2023-04-08T05:23:26;21.23;;;13.77;;
71639;SDS011;60912;48.968;10.124;2023-04-08T05:25:51;21.67;;;13.83;;
71639;SDS011;60912;48.968;10.124;2023-04-08T05:28:17;21.10;;;13.88;;
71639;SDS011;60912;48.968;10.124;2023-04-08T05:30:43;21.10;;;13.50;;
71639;SDS011;60912;48.968;10.124;2023-04-08T05:33:13;21.08;;;13.43;;
71639;SDS011;60912;48.968;10.124;2023-04-08T05:35:38;20.77;;;13.17;;
71639;SDS011;60912;48.968;10.124;2023-04-08T05:38:03;20.80;;;13.43;;
71639;SDS011;60912;48.968;10.124;2023-04-08T05:40:29;21.67;;;14.50;;
71639;SDS011;60912;48.968;10.124;2023-04-08T05:42:54;23.97;;;14.80;;
71639;SDS011;60912;48.968;10.124;2023-04-08T05:45:20;21.10;;;13.47;;
71639;SDS011;60912;48.968;10.124;2023-04-08T05:47:45;20.93;;;13.70;;
71639;SDS011;60912;48.968;10.124;2023-04-08T05:50:11;22.30;;;14.57;;
71639;SDS011;60912;48.968;10.124;2023-04-08T05:52:36;20.85;;;13.85;;
71639;SDS011;60912;48.968;10.124;2023-04-08T05:55:06;20.13;;;13.88;;
71639;SDS011;60912;48.968;10.124;2023-04-08T05:57:31;22.97;;;14.37;;
71639;SDS011;60912;48.968;10.124;2023-04-08T05:59:57;22.80;;;15.07;;
71639;SDS011;60912;48.968;10.124;2023-04-08T06:02:22;21.38;;;14.05;;
71639;SDS011;60912;48.968;10.124;2023-04-08T06:04:47;25.93;;;17.20;;
71639;SDS011;60912;48.968;10.124;2023-04-08T06:07:13;23.00;;;14.43;;
71639;SDS011;60912;48.968;10.124;2023-04-08T06:09:38;21.93;;;14.70;;
71639;SDS011;60912;48.968;10.124;2023-04-08T06:12:04;22.00;;;15.10;;
71639;SDS011;60912;48.968;10.124;2023-04-08T06:14:29;22.47;;;14.60;;
71639;SDS011;60912;48.968;10.124;2023-04-08T06:16:55;19.43;;;13.53;;
71639;SDS011;60912;48.968;10.124;2023-04-08T06:19:21;20.55;;;12.77;;
71639;SDS011;60912;48.968;10.124;2023-04-08T06:21:46;21.00;;;13.02;;
71639;SDS011;60912;48.968;10.124;2023-04-08T06:24:12;21.80;;;13.90;;
71639;SDS011;60912;48.968;10.124;2023-04-08T06:26:37;20.17;;;13.23;;
71639;SDS011;60912;48.968;10.124;2023-04-08T06:29:02;22.47;;;13.20;;
71639;SDS011;60912;48.968;10.124;2023-04-08T06:31:29;21.80;;;14.25;;
71639;SDS011;60912;48.968;10.124;2023-04-08T06:33:54;22.13;;;14.10;;
71639;SDS011;60912;48.968;10.124;2023-04-08T06:36:20;19.40;;;13.40;;
71639;SDS011;60912;48.968;10.124;2023-04-08T06:38:45;23.63;;;14.50;;
71639;SDS011;60912;48.968;10.124;2023-04-08T06:41:11;21.60;;;13.50;;
71639;SDS011;60912;48.968;10.124;2023-04-08T06:43:36;20.03;;;13.67;;
71639;SDS011;60912;48.968;10.124;2023-04-08T06:46:04;18.30;;;13.13;;
71639;SDS011;60912;48.968;10.124;2023-04-08T06:48:58;21.10;;;11.87;;
71639;SDS011;60912;48.968;10.124;2023-04-08T06:51:23;19.45;;;13.85;;
71639;SDS011;60912;48.968;10.124;2023-04-08T06:53:49;19.17;;;12.33;;
71639;SDS011;60912;48.968;10.124;2023-04-08T06:56:15;17.33;;;11.98;;
71639;SDS011;60912;48.968;10.124;2023-04-08T06:58:40;19.30;;;12.37;;
71639;SDS011;60912;48.968;10.124;2023-04-08T07:01:06;17.23;;;11.87;;
71639;SDS011;60912;48.968;10.124;2023-04-08T07:03:31;17.98;;;11.98;;
71639;SDS011;60912;48.968;10.124;2023-04-08T07:05:57;18.03;;;11.63;;
71639;SDS011;60912;48.968;10.124;2023-04-08T07:08:22;15.83;;;10.83;;
71639;SDS011;60912;48.968;10.124;2023-04-08T07:10:47;19.37;;;11.37;;
71639;SDS011;60912;48.968;10.124;2023-04-08T07:13:13;18.15;;;11.90;;
71639;SDS011;60912;48.968;10.124;2023-04-08T07:15:39;17.77;;;11.43;;
71639;SDS011;60912;48.968;10.124;2023-04-08T07:18:05;16.33;;;11.60;;
71639;SDS011;60912;48.968;10.124;2023-04-08T07:20:31;18.37;;;10.87;;
71639;SDS011;60912;48.968;10.124;2023-04-08T07:22:59;15.00;;;10.85;;
71639;SDS011;60912;48.968;10.124;2023-04-08T07:25:25;18.63;;;11.30;;
71639;SDS011;60912;48.968;10.124;2023-04-08T07:27:54;16.75;;;10.77;;
71639;SDS011;60912;48.968;10.124;2023-04-08T07:30:20;16.50;;;11.02;;
71639;SDS011;60912;48.968;10.124;2023-04-08T07:32:46;18.70;;;11.48;;
71639;SDS011;60912;48.968;10.124;2023-04-08T07:35:12;16.73;;;11.20;;
71639;SDS011;60912;48.968;10.124;2023-04-08T07:37:37;18.17;;;11.70;;
71639;SDS011;60912;48.968;10.124;2023-04-08T07:40:05;17.50;;;10.57;;
71639;SDS011;60912;48.968;10.124;2023-04-08T07:42:31;15.48;;;11.07;;
71639;SDS011;60912;48.968;10.124;2023-04-08T07:44:57;15.85;;;10.90;;
71639;SDS011;60912;48.968;10.124;2023-04-08T07:47:25;18.45;;;10.70;;
71639;SDS011;60912;48.968;10.124;2023-04-08T07:49:51;16.50;;;10.47;;
71639;SDS011;60912;48.968;10.124;2023-04-08T07:52:16;14.67;;;10.43;;
71639;SDS011;60912;48.968;10.124;2023-04-08T07:54:42;14.37;;;10.40;;
71639;SDS011;60912;48.968;10.124;2023-04-08T07:57:07;17.85;;;11.02;;
71639;SDS011;60912;48.968;10.124;2023-04-08T07:59:33;16.20;;;11.03;;
71639;SDS011;60912;48.968;10.124;2023-04-08T08:01:58;15.80;;;10.37;;
71639;SDS011;60912;48.968;10.124;2023-04-08T08:04:24;14.90;;;10.30;;
71639;SDS011;60912;48.968;10.124;2023-04-08T08:06:49;16.53;;;10.53;;
71639;SDS011;60912;48.968;10.124;2023-04-08T08:09:15;16.15;;;10.00;;
71639;SDS011;60912;48.968;10.124;2023-04-08T08:11:40;14.13;;;9.83;;
71639;SDS011;60912;48.968;10.124;2023-04-08T08:14:06;16.37;;;9.40;;
71639;SDS011;60912;48.968;10.124;2023-04-08T08:16:32;13.77;;;9.07;;
71639;SDS011;60912;48.968;10.124;2023-04-08T08:18:57;16.73;;;9.40;;
71639;SDS011;60912;48.968;10.124;2023-04-08T08:21:23;16.70;;;9.57;;
71639;SDS011;60912;48.968;10.124;2023-04-08T08:23:51;14.93;;;9.40;;
71639;SDS011;60912;48.968;10.124;2023-04-08T08:26:17;14.80;;;9.90;;
71639;SDS011;60912;48.968;10.124;2023-04-08T08:28:42;14.18;;;10.02;;
71639;SDS011;60912;48.968;10.124;2023-04-08T08:31:07;12.27;;;8.83;;
71639;SDS011;60912;48.968;10.124;2023-04-08T08:33:33;16.00;;;9.80;;
71639;SDS011;60912;48.968;10.124;2023-04-08T08:35:58;14.00;;;9.47;;
71639;SDS011;60912;48.968;10.124;2023-04-08T08:38:24;15.45;;;9.90;;
71639;SDS011;60912;48.968;10.124;2023-04-08T08:40:53;17.00;;;9.87;;
71639;SDS011;60912;48.968;10.124;2023-04-08T08:43:21;13.35;;;9.77;;
71639;SDS011;60912;48.968;10.124;2023-04-08T08:45:47;13.25;;;9.40;;
71639;SDS011;60912;48.968;10.124;2023-04-08T08:48:13;15.15;;;9.70;;
71639;SDS011;60912;48.968;10.124;2023-04-08T08:50:39;14.50;;;9.13;;
71639;SDS011;60912;48.968;10.124;2023-04-08T08:53:05;14.82;;;9.80;;
71639;SDS011;60912;48.968;10.124;2023-04-08T08:55:31;13.90;;;9.87;;
71639;SDS011;60912;48.968;10.124;2023-04-08T08:57:58;13.95;;;9.18;;
71639;SDS011;60912;48.968;10.124;2023-04-08T09:00:31;14.15;;;9.60;;
71639;SDS011;60912;48.968;10.124;2023-04-08T09:03:08;14.93;;;9.65;;
71639;SDS011;60912;48.968;10.124;2023-04-08T09:08:30;14.70;;;9.10;;
71639;SDS011;60912;48.968;10.124;2023-04-08T09:11:15;11.80;;;7.80;;
71639;SDS011;60912;48.968;10.124;2023-04-08T09:13:40;11.48;;;7.65;;
71639;SDS011;60912;48.968;10.124;2023-04-08T09:16:07;12.63;;;8.10;;
71639;SDS011;60912;48.968;10.124;2023-04-08T09:18:34;12.10;;;8.00;;
71639;SDS011;60912;48.968;10.124;2023-04-08T09:21:03;11.27;;;7.90;;
71639;SDS011;60912;48.968;10.124;2023-04-08T09:26:24;12.55;;;7.90;;
71639;SDS011;60912;48.968;10.124;2023-04-08T09:29:01;10.77;;;7.78;;
71639;SDS011;60912;48.968;10.124;2023-04-08T09:31:31;11.50;;;7.63;;
71639;SDS011;60912;48.968;10.124;2023-04-08T09:34:00;12.95;;;7.88;;
71639;SDS011;60912;48.968;10.124;2023-04-08T09:36:35;10.60;;;8.02;;
71639;SDS011;60912;48.968;10.124;2023-04-08T09:39:02;12.23;;;7.97;;
71639;SDS011;60912;48.968;10.124;2023-04-08T09:41:27;10.20;;;6.97;;
71639;SDS011;60912;48.968;10.124;2023-04-08T09:43:54;10.68;;;7.43;;
71639;SDS011;60912;48.968;10.124;2023-04-08T09:46:24;12.85;;;7.18;;
71639;SDS011;60912;48.968;10.124;2023-04-08T09:51:44;10.02;;;6.75;;
71639;SDS011;60912;48.968;10.124;2023-04-08T09:54:17;9.37;;;6.70;;
71639;SDS011;60912;48.968;10.124;2023-04-08T09:56:52;12.63;;;7.47;;
71639;SDS011;60912;48.968;10.124;2023-04-08T09:59:22;16.38;;;6.78;;
71639;SDS011;60912;48.968;10.124;2023-04-08T10:01:52;11.23;;;6.40;;
71639;SDS011;60912;48.968;10.124;2023-04-08T10:04:20;10.57;;;6.38;;
71639;SDS011;60912;48.968;10.124;2023-04-08T10:06:53;11.23;;;6.90;;
71639;SDS011;60912;48.968;10.124;2023-04-08T10:09:25;11.95;;;7.00;;
71639;SDS011;60912;48.968;10.124;2023-04-08T10:11:52;11.55;;;7.00;;
71639;SDS011;60912;48.968;10.124;2023-04-08T10:14:18;9.13;;;6.13;;
71639;SDS011;60912;48.968;10.124;2023-04-08T10:16:46;9.00;;;6.20;;
71639;SDS011;60912;48.968;10.124;2023-04-08T10:27:41;11.32;;;6.05;;
71639;SDS011;60912;48.968;10.124;2023-04-08T10:32:52;12.00;;;5.83;;
71639;SDS011;60912;48.968;10.124;2023-04-08T10:35:29;9.85;;;4.95;;
71639;SDS011;60912;48.968;10.124;2023-04-08T10:37:56;8.15;;;5.38;;
71639;SDS011;60912;48.968;10.124;2023-04-08T10:40:23;9.63;;;5.65;;
71639;SDS011;60912;48.968;10.124;2023-04-08T10:42:55;10.32;;;5.95;;
71639;SDS011;60912;48.968;10.124;2023-04-08T10:45:21;9.33;;;5.87;;
71639;SDS011;60912;48.968;10.124;2023-04-08T10:47:47;10.35;;;5.90;;
71639;SDS011;60912;48.968;10.124;2023-04-08T10:50:14;8.03;;;5.70;;
71639;SDS011;60912;48.968;10.124;2023-04-08T10:52:50;8.02;;;5.35;;
71639;SDS011;60912;48.968;10.124;2023-04-08T10:55:22;11.20;;;5.53;;
71639;SDS011;60912;48.968;10.124;2023-04-08T10:57:49;9.15;;;5.63;;
71639;SDS011;60912;48.968;10.124;2023-04-08T11:00:18;9.70;;;6.10;;
71639;SDS011;60912;48.968;10.124;2023-04-08T11:03:00;9.00;;;6.10;;
71639;SDS011;60912;48.968;10.124;2023-04-08T11:05:30;9.60;;;5.80;;
71639;SDS011;60912;48.968;10.124;2023-04-08T11:07:57;9.25;;;6.05;;
71639;SDS011;60912;48.968;10.124;2023-04-08T11:10:23;8.63;;;5.95;;
71639;SDS011;60912;48.968;10.124;2023-04-08T11:12:50;9.25;;;5.25;;
71639;SDS011;60912;48.968;10.124;2023-04-08T11:15:18;8.13;;;4.93;;
71639;SDS011;60912;48.968;10.124;2023-04-08T11:17:47;9.38;;;5.43;;
71639;SDS011;60912;48.968;10.124;2023-04-08T11:20:14;7.32;;;5.07;;
71639;SDS011;60912;48.968;10.124;2023-04-08T11:22:45;7.72;;;5.18;;
71639;SDS011;60912;48.968;10.124;2023-04-08T11:25:14;9.30;;;5.80;;
71639;SDS011;60912;48.968;10.124;2023-04-08T11:27:39;8.30;;;5.10;;
71639;SDS011;60912;48.968;10.124;2023-04-08T11:30:05;8.27;;;5.28;;
71639;SDS011;60912;48.968;10.124;2023-04-08T11:32:37;8.13;;;5.50;;
71639;SDS011;60912;48.968;10.124;2023-04-08T11:35:04;8.80;;;5.77;;
71639;SDS011;60912;48.968;10.124;2023-04-08T11:37:37;9.00;;;5.80;;
71639;SDS011;60912;48.968;10.124;2023-04-08T11:40:10;9.00;;;5.63;;
71639;SDS011;60912;48.968;10.124;2023-04-08T11:42:37;8.63;;;5.65;;
71639;SDS011;60912;48.968;10.124;2023-04-08T11:45:10;10.10;;;5.25;;
71639;SDS011;60912;48.968;10.124;2023-04-08T11:47:38;9.50;;;5.43;;
71639;SDS011;60912;48.968;10.124;2023-04-08T11:50:04;9.85;;;5.65;;
71639;SDS011;60912;48.968;10.124;2023-04-08T11:52:40;9.00;;;5.95;;
71639;SDS011;60912;48.968;10.124;2023-04-08T11:55:08;8.87;;;5.20;;
71639;SDS011;60912;48.968;10.124;2023-04-08T11:57:36;9.40;;;5.63;;
71639;SDS011;60912;48.968;10.124;2023-04-08T12:00:04;8.88;;;5.70;;
71639;SDS011;60912;48.968;10.124;2023-04-08T12:02:30;10.27;;;5.60;;
71639;SDS011;60912;48.968;10.124;2023-04-08T12:04:55;12.47;;;6.07;;
71639;SDS011;60912;48.968;10.124;2023-04-08T12:07:21;12.80;;;5.83;;
71639;SDS011;60912;48.968;10.124;2023-04-08T12:09:46;7.50;;;4.80;;
71639;SDS011;60912;48.968;10.124;2023-04-08T12:12:12;9.55;;;5.55;;
71639;SDS011;60912;48.968;10.124;2023-04-08T12:14:37;10.43;;;5.80;;
71639;SDS011;60912;48.968;10.124;2023-04-08T12:17:02;8.07;;;5.70;;
71639;SDS011;60912;48.968;10.124;2023-04-08T12:19:28;7.93;;;5.10;;
71639;SDS011;60912;48.968;10.124;2023-04-08T12:21:53;7.47;;;5.47;;
71639;SDS011;60912;48.968;10.124;2023-04-08T12:24:19;9.20;;;5.53;;
71639;SDS011;60912;48.968;10.124;2023-04-08T12:26:45;8.68;;;5.50;;
71639;SDS011;60912;48.968;10.124;2023-04-08T12:29:10;8.30;;;5.33;;
71639;SDS011;60912;48.968;10.124;2023-04-08T12:31:36;7.70;;;5.40;;
71639;SDS011;60912;48.968;10.124;2023-04-08T12:34:01;8.40;;;5.03;;
71639;SDS011;60912;48.968;10.124;2023-04-08T12:36:27;7.78;;;5.30;;
71639;SDS011;60912;48.968;10.124;2023-04-08T12:38:52;9.33;;;4.90;;
71639;SDS011;60912;48.968;10.124;2023-04-08T12:41:18;8.50;;;5.40;;
71639;SDS011;60912;48.968;10.124;2023-04-08T12:43:43;8.18;;;5.05;;
71639;SDS011;60912;48.968;10.124;2023-04-08T12:46:09;8.27;;;4.93;;
71639;SDS011;60912;48.968;10.124;2023-04-08T12:48:34;8.90;;;5.07;;
71639;SDS011;60912;48.968;10.124;2023-04-08T12:51:00;8.43;;;4.85;;
71639;SDS011;60912;48.968;10.124;2023-04-08T12:53:26;7.60;;;4.77;;
71639;SDS011;60912;48.968;10.124;2023-04-08T12:55:54;8.43;;;5.50;;
71639;SDS011;60912;48.968;10.124;2023-04-08T12:58:22;7.97;;;4.47;;
71639;SDS011;60912;48.968;10.124;2023-04-08T13:00:49;7.57;;;5.22;;
71639;SDS011;60912;48.968;10.124;2023-04-08T13:03:14;9.60;;;5.60;;
71639;SDS011;60912;48.968;10.124;2023-04-08T13:05:41;8.52;;;5.80;;
71639;SDS011;60912;48.968;10.124;2023-04-08T13:08:07;8.25;;;5.63;;
71639;SDS011;60912;48.968;10.124;2023-04-08T13:10:33;7.47;;;5.23;;
71639;SDS011;60912;48.968;10.124;2023-04-08T13:12:58;8.13;;;5.57;;
71639;SDS011;60912;48.968;10.124;2023-04-08T13:15:24;8.60;;;5.78;;
71639;SDS011;60912;48.968;10.124;2023-04-08T13:17:50;9.65;;;6.32;;
71639;SDS011;60912;48.968;10.124;2023-04-08T13:20:15;9.00;;;6.17;;
71639;SDS011;60912;48.968;10.124;2023-04-08T13:22:41;8.93;;;6.10;;
71639;SDS011;60912;48.968;10.124;2023-04-08T13:25:07;10.50;;;6.57;;
71639;SDS011;60912;48.968;10.124;2023-04-08T13:27:33;8.60;;;6.40;;
71639;SDS011;60912;48.968;10.124;2023-04-08T13:29:58;8.83;;;6.10;;
71639;SDS011;60912;48.968;10.124;2023-04-08T13:32:24;9.97;;;6.03;;
71639;SDS011;60912;48.968;10.124;2023-04-08T13:34:50;7.70;;;5.90;;
71639;SDS011;60912;48.968;10.124;2023-04-08T13:37:15;9.10;;;6.50;;
71639;SDS011;60912;48.968;10.124;2023-04-08T13:39:41;10.13;;;6.50;;
71639;SDS011;60912;48.968;10.124;2023-04-08T13:42:06;10.40;;;6.73;;
71639;SDS011;60912;48.968;10.124;2023-04-08T13:44:32;10.45;;;6.47;;
71639;SDS011;60912;48.968;10.124;2023-04-08T13:46:58;9.27;;;6.37;;
71639;SDS011;60912;48.968;10.124;2023-04-08T13:49:24;9.30;;;6.45;;
71639;SDS011;60912;48.968;10.124;2023-04-08T13:51:50;9.35;;;6.63;;
71639;SDS011;60912;48.968;10.124;2023-04-08T13:54:16;9.33;;;6.30;;
71639;SDS011;60912;48.968;10.124;2023-04-08T13:56:41;8.10;;;6.40;;
71639;SDS011;60912;48.968;10.124;2023-04-08T13:59:07;7.57;;;5.90;;
71639;SDS011;60912;48.968;10.124;2023-04-08T14:01:34;7.57;;;6.25;;
71639;SDS011;60912;48.968;10.124;2023-04-08T14:03:59;7.97;;;6.07;;
71639;SDS011;60912;48.968;10.124;2023-04-08T14:06:26;7.95;;;5.70;;
71639;SDS011;60912;48.968;10.124;2023-04-08T14:08:52;8.65;;;5.90;;
71639;SDS011;60912;48.968;10.124;2023-04-08T14:11:17;7.87;;;5.80;;
71639;SDS011;60912;48.968;10.124;2023-04-08T14:13:43;7.97;;;5.40;;
71639;SDS011;60912;48.968;10.124;2023-04-08T14:16:08;7.68;;;5.32;;
71639;SDS011;60912;48.968;10.124;2023-04-08T14:18:34;7.97;;;5.60;;
71639;SDS011;60912;48.968;10.124;2023-04-08T14:21:00;7.50;;;5.32;;
71639;SDS011;60912;48.968;10.124;2023-04-08T14:23:26;7.68;;;5.43;;
71639;SDS011;60912;48.968;10.124;2023-04-08T14:25:52;6.87;;;4.77;;
71639;SDS011;60912;48.968;10.124;2023-04-08T14:28:17;8.13;;;5.47;;
71639;SDS011;60912;48.968;10.124;2023-04-08T14:30:43;8.57;;;5.13;;
71639;SDS011;60912;48.968;10.124;2023-04-08T14:33:08;8.00;;;4.60;;
71639;SDS011;60912;48.968;10.124;2023-04-08T14:35:33;8.27;;;5.13;;
71639;SDS011;60912;48.968;10.124;2023-04-08T14:37:59;9.18;;;6.13;;
71639;SDS011;60912;48.968;10.124;2023-04-08T14:40:25;9.30;;;5.90;;
71639;SDS011;60912;48.968;10.124;2023-04-08T14:42:50;8.52;;;5.85;;
71639;SDS011;60912;48.968;10.124;2023-04-08T14:45:16;10.00;;;5.77;;
71639;SDS011;60912;48.968;10.124;2023-04-08T14:47:42;8.53;;;5.97;;